Have a Safe July 4th! 

Flight Track Log - Related Links

Times and Time Zones

All times are in EDT time to prevent confusion due to time zone crossing. See the FLG4262 flight status page for this flight to view local times or setup timezone preferences in your user account.

Time Position Orientation Groundspeed Altitude Reporting Facility
EDT Latitude Longitude Course Direction KTS MPH feet Rate Location/Type
Mon 04:33:22 PM 42.2031 -83.3525 155° Southeast 162 186 1,400  Level Cleveland Center
Mon 04:35:05 PM 42.1172 -83.2983 155° Southeast 291 335 6,100 2,711 Climbing Cleveland Center
Mon 04:36:08 PM 42.0781 -83.2072 120° Southeast 289 333 8,900 2,496 Climbing Cleveland Center
Mon 04:37:10 PM 42.1086 -83.0839 71° East 343 395 11,300 1,984 Climbing Cleveland Center
Mon 04:38:12 PM 42.1722 -82.9911 47° Northeast 355 409 13,000 1,065 Climbing Cleveland Center
Mon 04:39:14 PM 42.2358 -82.8278 62° Northeast 416 479 13,500 726 Climbing Cleveland Center
Mon 04:40:16 PM 42.2886 -82.6769 65° Northeast 437 503 14,500 968 Climbing Cleveland Center
Mon 04:41:18 PM 42.3442 -82.5225 64° Northeast 454 522 15,500 968 Climbing Cleveland Center
Mon 04:42:20 PM 42.3642 -82.3556 81° East 461 531 16,500 871 Climbing Cleveland Center
Mon 04:43:22 PM 42.3578 -82.1842 93° East 457 526 17,300 1,065 Climbing Cleveland Center
Mon 04:44:24 PM 42.3500 -81.9897 93° East 459 528 18,700 1,161 Climbing Cleveland Center
Mon 04:45:26 PM 42.3419 -81.8147 94° East 459 528 19,700 823 Climbing Cleveland Center
Mon 04:46:28 PM 42.3342 -81.6381 93° East 463 533 20,400 677 Climbing Cleveland Center
Mon 04:47:30 PM 42.3250 -81.4592 94° East 469 540 21,100 677 Climbing Cleveland Center
Mon 04:48:32 PM 42.3164 -81.2772 94° East 473 544 21,800 677 Climbing Cleveland Center
Mon 04:49:34 PM 42.3064 -81.0950 94° East 478 550 22,500 968 Climbing Cleveland Center
Mon 04:50:36 PM 42.2958 -80.8847 94° East 479 551 23,800 1,220 Climbing Cleveland Center
Mon 04:51:37 PM 42.2858 -80.7097 94° East 468 539 25,000 829 Climbing Cleveland Center
Mon 04:52:39 PM 42.2836 -80.5358 91° East 460 529 25,500 484 Climbing Cleveland Center
Mon 04:53:41 PM 42.2836 -80.3525 90° East 476 548 26,000 484 Climbing Cleveland Center
Mon 04:54:43 PM 42.2844 -80.1689 90° East 481 554 26,500 484 Climbing Cleveland Center
Mon 04:55:45 PM 42.2839 -79.9681 90° East 485 558 27,000 242 Climbing Cleveland Center
Mon 04:56:47 PM 42.2831 -79.7853 90° East 489 563 27,000  Level Cleveland Center
Mon 04:57:49 PM 42.2822 -79.5978 90° East 500 575 27,000  Level Cleveland Center
Mon 04:58:51 PM 42.2808 -79.4081 91° East 507 583 27,000  Level Cleveland Center
Mon 04:59:53 PM 42.2800 -79.2167 90° East 509 586 27,000  Level Cleveland Center
Mon 05:00:55 PM 42.2786 -78.9878 90° East 510 587 27,000  Level Cleveland Center
Mon 05:01:57 PM 42.2772 -78.8047 91° East 496 571 27,000 -144 Level Cleveland Center
Mon 05:03:00 PM 42.2742 -78.6192 91° East 496 571 26,700 -768 Descending Cleveland Center
Mon 05:04:02 PM 42.2714 -78.4314 91° East 497 572 25,400 -1,935 Descending Cleveland Center
Mon 05:05:04 PM 42.2678 -78.2428 91° East 503 579 22,700 -2,565 Descending Cleveland Center
Mon 05:06:06 PM 42.2633 -78.0250 92° East 492 566 20,100 -1,984 Descending Cleveland Center
Mon 05:07:08 PM 42.2603 -77.8514 91° East 472 543 18,600 -1,548 Descending Cleveland Center
Mon 05:08:10 PM 42.2561 -77.6836 92° East 457 526 16,900 -823 Descending Cleveland Center
Mon 05:09:12 PM 42.2525 -77.5164 92° East 454 522 16,900 -48 Level Cleveland Center
Mon 05:10:14 PM 42.2489 -77.3489 92° East 453 521 16,800  Descending Cleveland Center
Mon 05:11:16 PM 42.2442 -77.1469 92° East 453 521 16,900  Climbing Cleveland Center
Mon 05:12:18 PM 42.2397 -76.9775 92° East 453 521 16,800 -1,306 Descending Cleveland Center
Mon 05:13:20 PM 42.2356 -76.8106 92° East 450 518 14,200 -2,419 Descending Cleveland Center
Mon 05:14:22 PM 42.2308 -76.6531 92° East 428 493 11,800 -1,790 Descending Cleveland Center
Mon 05:15:24 PM 42.2256 -76.5044 93° East 406 467 10,500 -1,355 Descending Cleveland Center
Mon 05:16:26 PM 42.2208 -76.3792 93° East 327 376 9,000 -2,032 Descending Cleveland Center
Mon 05:17:28 PM 42.2392 -76.2478 79° East 324 373 6,300 -2,177 Descending Cleveland Center
Mon 05:18:30 PM 42.2883 -76.1636 52° Northeast 292 336 4,500 -1,210 Descending Cleveland Center
Mon 05:19:32 PM 42.2939 -76.0906 84° East 219 252 3,800 -484 Descending Cleveland Center
Mon 05:20:34 PM 42.2792 -76.0389 111° Southeast 201 231 3,500 -556 Descending Cleveland Center
Mon 05:22:14 PM 42.2311 -75.9492 126° Southeast 159 183 2,300 -720 Descending New York Center

Login

Don't have an account? Register now (free) for customized features, flight alerts, and more!